sensor_id;sensor_type;location;lat;lon;timestamp;P1;durP1;ratioP1;P2;durP2;ratioP2
39958;SDS011;25639;53.634;9.880;2024-01-27T00:02:23;49.72;;;5.13;;
39958;SDS011;25639;53.634;9.880;2024-01-27T00:04:49;32.72;;;4.68;;
39958;SDS011;25639;53.634;9.880;2024-01-27T00:07:14;43.17;;;4.20;;
39958;SDS011;25639;53.634;9.880;2024-01-27T00:09:40;44.95;;;5.28;;
39958;SDS011;25639;53.634;9.880;2024-01-27T00:12:06;36.05;;;4.00;;
39958;SDS011;25639;53.634;9.880;2024-01-27T00:14:31;28.98;;;4.25;;
39958;SDS011;25639;53.634;9.880;2024-01-27T00:16:56;34.17;;;5.03;;
39958;SDS011;25639;53.634;9.880;2024-01-27T00:19:22;40.00;;;4.10;;
39958;SDS011;25639;53.634;9.880;2024-01-27T00:21:47;37.03;;;4.80;;
39958;SDS011;25639;53.634;9.880;2024-01-27T00:24:13;46.78;;;6.30;;
39958;SDS011;25639;53.634;9.880;2024-01-27T00:26:38;54.40;;;5.35;;
39958;SDS011;25639;53.634;9.880;2024-01-27T00:29:04;42.17;;;4.70;;
39958;SDS011;25639;53.634;9.880;2024-01-27T00:31:29;32.90;;;5.95;;
39958;SDS011;25639;53.634;9.880;2024-01-27T00:33:54;42.92;;;5.15;;
39958;SDS011;25639;53.634;9.880;2024-01-27T00:36:19;51.03;;;4.35;;
39958;SDS011;25639;53.634;9.880;2024-01-27T00:38:45;43.70;;;5.07;;
39958;SDS011;25639;53.634;9.880;2024-01-27T00:41:15;43.47;;;5.10;;
39958;SDS011;25639;53.634;9.880;2024-01-27T00:43:44;48.22;;;6.10;;
39958;SDS011;25639;53.634;9.880;2024-01-27T00:46:10;29.17;;;4.50;;
39958;SDS011;25639;53.634;9.880;2024-01-27T00:48:35;39.88;;;5.47;;
39958;SDS011;25639;53.634;9.880;2024-01-27T00:51:01;39.28;;;4.97;;
39958;SDS011;25639;53.634;9.880;2024-01-27T00:53:26;51.72;;;5.32;;
39958;SDS011;25639;53.634;9.880;2024-01-27T00:55:51;36.75;;;4.18;;
39958;SDS011;25639;53.634;9.880;2024-01-27T00:58:16;48.33;;;6.45;;
39958;SDS011;25639;53.634;9.880;2024-01-27T01:00:42;38.53;;;4.75;;
39958;SDS011;25639;53.634;9.880;2024-01-27T01:03:07;41.90;;;5.13;;
39958;SDS011;25639;53.634;9.880;2024-01-27T01:05:32;50.47;;;6.72;;
39958;SDS011;25639;53.634;9.880;2024-01-27T01:07:57;37.42;;;5.43;;
39958;SDS011;25639;53.634;9.880;2024-01-27T01:10:23;50.60;;;5.18;;
39958;SDS011;25639;53.634;9.880;2024-01-27T01:12:48;53.17;;;5.53;;
39958;SDS011;25639;53.634;9.880;2024-01-27T01:15:13;42.90;;;5.35;;
39958;SDS011;25639;53.634;9.880;2024-01-27T01:17:38;39.78;;;5.22;;
39958;SDS011;25639;53.634;9.880;2024-01-27T01:20:04;51.40;;;5.95;;
39958;SDS011;25639;53.634;9.880;2024-01-27T01:22:30;47.60;;;5.22;;
39958;SDS011;25639;53.634;9.880;2024-01-27T01:24:56;36.92;;;4.82;;
39958;SDS011;25639;53.634;9.880;2024-01-27T01:27:21;52.80;;;5.80;;
39958;SDS011;25639;53.634;9.880;2024-01-27T01:29:46;43.60;;;5.05;;
39958;SDS011;25639;53.634;9.880;2024-01-27T01:32:12;35.35;;;4.90;;
39958;SDS011;25639;53.634;9.880;2024-01-27T01:34:37;36.28;;;4.40;;
39958;SDS011;25639;53.634;9.880;2024-01-27T01:37:02;49.00;;;6.28;;
39958;SDS011;25639;53.634;9.880;2024-01-27T01:39:28;48.20;;;5.30;;
39958;SDS011;25639;53.634;9.880;2024-01-27T01:41:53;45.20;;;4.75;;
39958;SDS011;25639;53.634;9.880;2024-01-27T01:44:18;39.65;;;4.65;;
39958;SDS011;25639;53.634;9.880;2024-01-27T01:46:44;54.80;;;6.18;;
39958;SDS011;25639;53.634;9.880;2024-01-27T01:49:10;45.42;;;5.32;;
39958;SDS011;25639;53.634;9.880;2024-01-27T01:51:35;41.28;;;4.85;;
39958;SDS011;25639;53.634;9.880;2024-01-27T01:54:00;45.75;;;5.10;;
39958;SDS011;25639;53.634;9.880;2024-01-27T01:56:26;41.53;;;4.80;;
39958;SDS011;25639;53.634;9.880;2024-01-27T01:58:53;37.10;;;6.63;;
39958;SDS011;25639;53.634;9.880;2024-01-27T02:01:19;47.90;;;5.13;;
39958;SDS011;25639;53.634;9.880;2024-01-27T02:03:53;35.33;;;4.57;;
39958;SDS011;25639;53.634;9.880;2024-01-27T02:06:19;40.23;;;5.20;;
39958;SDS011;25639;53.634;9.880;2024-01-27T02:08:44;39.42;;;5.15;;
39958;SDS011;25639;53.634;9.880;2024-01-27T02:11:09;53.38;;;4.78;;
39958;SDS011;25639;53.634;9.880;2024-01-27T02:13:35;45.75;;;4.90;;
39958;SDS011;25639;53.634;9.880;2024-01-27T02:16:00;41.25;;;4.75;;
39958;SDS011;25639;53.634;9.880;2024-01-27T02:18:26;36.30;;;4.95;;
39958;SDS011;25639;53.634;9.880;2024-01-27T02:20:51;41.83;;;5.15;;
39958;SDS011;25639;53.634;9.880;2024-01-27T02:23:16;35.45;;;4.72;;
39958;SDS011;25639;53.634;9.880;2024-01-27T02:25:41;45.55;;;5.65;;
39958;SDS011;25639;53.634;9.880;2024-01-27T02:28:07;32.97;;;4.53;;
39958;SDS011;25639;53.634;9.880;2024-01-27T02:30:32;43.35;;;5.60;;
39958;SDS011;25639;53.634;9.880;2024-01-27T02:32:58;41.95;;;4.65;;
39958;SDS011;25639;53.634;9.880;2024-01-27T02:35:23;45.85;;;5.90;;
39958;SDS011;25639;53.634;9.880;2024-01-27T02:37:49;31.05;;;4.05;;
39958;SDS011;25639;53.634;9.880;2024-01-27T02:40:15;32.28;;;4.18;;
39958;SDS011;25639;53.634;9.880;2024-01-27T02:42:40;47.30;;;4.75;;
39958;SDS011;25639;53.634;9.880;2024-01-27T02:45:09;37.28;;;5.20;;
39958;SDS011;25639;53.634;9.880;2024-01-27T02:47:36;42.95;;;4.60;;
39958;SDS011;25639;53.634;9.880;2024-01-27T02:50:01;37.35;;;4.93;;
39958;SDS011;25639;53.634;9.880;2024-01-27T02:52:27;46.47;;;5.70;;
39958;SDS011;25639;53.634;9.880;2024-01-27T02:54:52;42.97;;;5.35;;
39958;SDS011;25639;53.634;9.880;2024-01-27T02:57:18;36.75;;;5.13;;
39958;SDS011;25639;53.634;9.880;2024-01-27T02:59:45;54.08;;;4.88;;
39958;SDS011;25639;53.634;9.880;2024-01-27T03:02:10;45.35;;;4.85;;
39958;SDS011;25639;53.634;9.880;2024-01-27T03:04:36;45.42;;;5.25;;
39958;SDS011;25639;53.634;9.880;2024-01-27T03:07:01;50.10;;;5.05;;
39958;SDS011;25639;53.634;9.880;2024-01-27T03:09:26;33.50;;;4.80;;
39958;SDS011;25639;53.634;9.880;2024-01-27T03:11:52;41.10;;;4.50;;
39958;SDS011;25639;53.634;9.880;2024-01-27T03:14:17;41.63;;;5.30;;
39958;SDS011;25639;53.634;9.880;2024-01-27T03:16:43;54.83;;;5.13;;
39958;SDS011;25639;53.634;9.880;2024-01-27T03:19:09;41.95;;;4.97;;
39958;SDS011;25639;53.634;9.880;2024-01-27T03:21:35;39.63;;;4.45;;
39958;SDS011;25639;53.634;9.880;2024-01-27T03:24:00;32.90;;;4.03;;
39958;SDS011;25639;53.634;9.880;2024-01-27T03:26:25;44.33;;;4.63;;
39958;SDS011;25639;53.634;9.880;2024-01-27T03:28:50;39.60;;;5.38;;
39958;SDS011;25639;53.634;9.880;2024-01-27T03:31:16;43.92;;;5.80;;
39958;SDS011;25639;53.634;9.880;2024-01-27T03:33:41;36.08;;;4.32;;
39958;SDS011;25639;53.634;9.880;2024-01-27T03:36:12;40.95;;;4.32;;
39958;SDS011;25639;53.634;9.880;2024-01-27T03:38:38;51.67;;;4.90;;
39958;SDS011;25639;53.634;9.880;2024-01-27T03:41:05;57.63;;;5.18;;
39958;SDS011;25639;53.634;9.880;2024-01-27T03:43:30;40.78;;;5.43;;
39958;SDS011;25639;53.634;9.880;2024-01-27T03:45:56;52.47;;;5.20;;
39958;SDS011;25639;53.634;9.880;2024-01-27T03:48:22;30.60;;;4.72;;
39958;SDS011;25639;53.634;9.880;2024-01-27T03:50:47;36.10;;;4.60;;
39958;SDS011;25639;53.634;9.880;2024-01-27T03:53:12;40.72;;;5.05;;
39958;SDS011;25639;53.634;9.880;2024-01-27T03:55:38;46.85;;;5.03;;
39958;SDS011;25639;53.634;9.880;2024-01-27T03:58:03;49.53;;;5.82;;
39958;SDS011;25639;53.634;9.880;2024-01-27T04:00:28;40.78;;;5.60;;
39958;SDS011;25639;53.634;9.880;2024-01-27T04:02:57;46.88;;;5.35;;
39958;SDS011;25639;53.634;9.880;2024-01-27T04:05:23;50.53;;;4.95;;
39958;SDS011;25639;53.634;9.880;2024-01-27T04:07:49;50.58;;;5.85;;
39958;SDS011;25639;53.634;9.880;2024-01-27T04:10:16;43.03;;;4.28;;
39958;SDS011;25639;53.634;9.880;2024-01-27T04:12:42;40.83;;;4.60;;
39958;SDS011;25639;53.634;9.880;2024-01-27T04:15:08;33.70;;;4.20;;
39958;SDS011;25639;53.634;9.880;2024-01-27T04:17:33;45.30;;;4.28;;
39958;SDS011;25639;53.634;9.880;2024-01-27T04:19:59;36.92;;;5.18;;
39958;SDS011;25639;53.634;9.880;2024-01-27T04:22:25;31.90;;;3.88;;
39958;SDS011;25639;53.634;9.880;2024-01-27T04:24:50;42.75;;;5.85;;
39958;SDS011;25639;53.634;9.880;2024-01-27T04:27:16;45.20;;;5.60;;
39958;SDS011;25639;53.634;9.880;2024-01-27T04:29:41;46.50;;;4.63;;
39958;SDS011;25639;53.634;9.880;2024-01-27T04:32:07;39.55;;;4.40;;
39958;SDS011;25639;53.634;9.880;2024-01-27T04:34:32;37.88;;;4.75;;
39958;SDS011;25639;53.634;9.880;2024-01-27T04:36:57;48.67;;;5.18;;
39958;SDS011;25639;53.634;9.880;2024-01-27T04:39:22;38.13;;;4.38;;
39958;SDS011;25639;53.634;9.880;2024-01-27T04:41:48;38.30;;;4.80;;
39958;SDS011;25639;53.634;9.880;2024-01-27T04:44:13;44.80;;;5.40;;
39958;SDS011;25639;53.634;9.880;2024-01-27T04:46:38;38.42;;;4.72;;
39958;SDS011;25639;53.634;9.880;2024-01-27T04:49:03;59.40;;;5.50;;
39958;SDS011;25639;53.634;9.880;2024-01-27T04:51:29;44.72;;;4.47;;
39958;SDS011;25639;53.634;9.880;2024-01-27T04:53:54;35.67;;;4.47;;
39958;SDS011;25639;53.634;9.880;2024-01-27T04:56:19;52.42;;;5.38;;
39958;SDS011;25639;53.634;9.880;2024-01-27T04:58:44;42.58;;;5.15;;
39958;SDS011;25639;53.634;9.880;2024-01-27T05:01:10;42.25;;;4.60;;
39958;SDS011;25639;53.634;9.880;2024-01-27T05:03:35;42.15;;;5.25;;
39958;SDS011;25639;53.634;9.880;2024-01-27T05:06:01;38.10;;;5.97;;
39958;SDS011;25639;53.634;9.880;2024-01-27T05:08:27;39.85;;;4.68;;
39958;SDS011;25639;53.634;9.880;2024-01-27T05:10:52;40.13;;;4.57;;
39958;SDS011;25639;53.634;9.880;2024-01-27T05:13:17;44.50;;;4.90;;
39958;SDS011;25639;53.634;9.880;2024-01-27T05:15:42;41.08;;;4.50;;
39958;SDS011;25639;53.634;9.880;2024-01-27T05:18:08;38.20;;;4.88;;
39958;SDS011;25639;53.634;9.880;2024-01-27T05:20:35;37.97;;;4.90;;
39958;SDS011;25639;53.634;9.880;2024-01-27T05:23:00;37.58;;;4.00;;
39958;SDS011;25639;53.634;9.880;2024-01-27T05:25:25;43.30;;;4.47;;
39958;SDS011;25639;53.634;9.880;2024-01-27T05:27:50;45.85;;;4.57;;
39958;SDS011;25639;53.634;9.880;2024-01-27T05:30:16;33.38;;;4.15;;
39958;SDS011;25639;53.634;9.880;2024-01-27T05:32:42;38.58;;;4.88;;
39958;SDS011;25639;53.634;9.880;2024-01-27T05:35:07;41.63;;;4.95;;
39958;SDS011;25639;53.634;9.880;2024-01-27T05:37:33;39.65;;;3.97;;
39958;SDS011;25639;53.634;9.880;2024-01-27T05:39:58;36.45;;;4.97;;
39958;SDS011;25639;53.634;9.880;2024-01-27T05:42:23;39.10;;;4.15;;
39958;SDS011;25639;53.634;9.880;2024-01-27T05:44:48;49.75;;;4.88;;
39958;SDS011;25639;53.634;9.880;2024-01-27T05:47:14;34.80;;;4.97;;
39958;SDS011;25639;53.634;9.880;2024-01-27T05:49:39;39.05;;;4.95;;
39958;SDS011;25639;53.634;9.880;2024-01-27T05:52:04;33.80;;;4.80;;
39958;SDS011;25639;53.634;9.880;2024-01-27T05:54:30;43.33;;;4.15;;
39958;SDS011;25639;53.634;9.880;2024-01-27T05:56:55;48.67;;;4.50;;
39958;SDS011;25639;53.634;9.880;2024-01-27T05:59:21;47.67;;;4.50;;
39958;SDS011;25639;53.634;9.880;2024-01-27T06:01:46;35.90;;;4.32;;
39958;SDS011;25639;53.634;9.880;2024-01-27T06:04:11;40.78;;;5.18;;
39958;SDS011;25639;53.634;9.880;2024-01-27T06:06:39;36.33;;;5.90;;
39958;SDS011;25639;53.634;9.880;2024-01-27T06:09:05;33.58;;;5.15;;
39958;SDS011;25639;53.634;9.880;2024-01-27T06:11:31;42.15;;;4.38;;
39958;SDS011;25639;53.634;9.880;2024-01-27T06:13:56;46.58;;;4.65;;
39958;SDS011;25639;53.634;9.880;2024-01-27T06:16:23;49.80;;;5.32;;
39958;SDS011;25639;53.634;9.880;2024-01-27T06:18:48;47.88;;;5.32;;
39958;SDS011;25639;53.634;9.880;2024-01-27T06:21:13;39.13;;;4.78;;
39958;SDS011;25639;53.634;9.880;2024-01-27T06:23:39;44.80;;;5.13;;
39958;SDS011;25639;53.634;9.880;2024-01-27T06:26:07;38.00;;;4.50;;
39958;SDS011;25639;53.634;9.880;2024-01-27T06:28:33;39.80;;;5.50;;
39958;SDS011;25639;53.634;9.880;2024-01-27T06:30:59;33.75;;;4.78;;
39958;SDS011;25639;53.634;9.880;2024-01-27T06:33:25;37.35;;;4.13;;
39958;SDS011;25639;53.634;9.880;2024-01-27T06:35:50;48.33;;;4.57;;
39958;SDS011;25639;53.634;9.880;2024-01-27T06:38:16;47.80;;;4.63;;
39958;SDS011;25639;53.634;9.880;2024-01-27T06:40:41;42.22;;;4.45;;
39958;SDS011;25639;53.634;9.880;2024-01-27T06:43:06;36.60;;;4.70;;
39958;SDS011;25639;53.634;9.880;2024-01-27T06:45:31;43.05;;;4.03;;
39958;SDS011;25639;53.634;9.880;2024-01-27T06:47:57;47.60;;;4.95;;
39958;SDS011;25639;53.634;9.880;2024-01-27T06:50:22;42.67;;;4.45;;
39958;SDS011;25639;53.634;9.880;2024-01-27T06:52:48;48.67;;;5.43;;
39958;SDS011;25639;53.634;9.880;2024-01-27T06:55:13;30.08;;;3.80;;
39958;SDS011;25639;53.634;9.880;2024-01-27T06:57:38;42.15;;;4.35;;
39958;SDS011;25639;53.634;9.880;2024-01-27T07:00:06;46.05;;;4.53;;
39958;SDS011;25639;53.634;9.880;2024-01-27T07:02:31;40.22;;;5.88;;
39958;SDS011;25639;53.634;9.880;2024-01-27T07:04:57;40.03;;;4.65;;
39958;SDS011;25639;53.634;9.880;2024-01-27T07:07:25;42.28;;;4.00;;
39958;SDS011;25639;53.634;9.880;2024-01-27T07:09:52;39.95;;;4.10;;
39958;SDS011;25639;53.634;9.880;2024-01-27T07:12:19;46.38;;;5.25;;
39958;SDS011;25639;53.634;9.880;2024-01-27T07:14:44;33.13;;;3.70;;
39958;SDS011;25639;53.634;9.880;2024-01-27T07:17:10;34.75;;;4.32;;
39958;SDS011;25639;53.634;9.880;2024-01-27T07:19:35;35.47;;;4.15;;
39958;SDS011;25639;53.634;9.880;2024-01-27T07:22:00;35.83;;;5.07;;
39958;SDS011;25639;53.634;9.880;2024-01-27T07:24:26;37.08;;;4.80;;
39958;SDS011;25639;53.634;9.880;2024-01-27T07:26:51;32.13;;;3.78;;
39958;SDS011;25639;53.634;9.880;2024-01-27T07:29:17;43.05;;;4.47;;
39958;SDS011;25639;53.634;9.880;2024-01-27T07:31:43;39.53;;;5.10;;
39958;SDS011;25639;53.634;9.880;2024-01-27T07:34:09;40.47;;;4.10;;
39958;SDS011;25639;53.634;9.880;2024-01-27T07:36:34;37.50;;;3.70;;
39958;SDS011;25639;53.634;9.880;2024-01-27T07:38:59;46.72;;;5.10;;
39958;SDS011;25639;53.634;9.880;2024-01-27T07:41:25;36.65;;;4.47;;
39958;SDS011;25639;53.634;9.880;2024-01-27T07:43:50;47.60;;;4.68;;
39958;SDS011;25639;53.634;9.880;2024-01-27T07:46:16;33.78;;;4.20;;
39958;SDS011;25639;53.634;9.880;2024-01-27T07:48:41;42.67;;;4.28;;
39958;SDS011;25639;53.634;9.880;2024-01-27T07:51:06;34.00;;;3.90;;
39958;SDS011;25639;53.634;9.880;2024-01-27T07:53:32;34.45;;;3.80;;
39958;SDS011;25639;53.634;9.880;2024-01-27T07:55:58;33.88;;;4.53;;
39958;SDS011;25639;53.634;9.880;2024-01-27T07:58:23;35.60;;;4.03;;
39958;SDS011;25639;53.634;9.880;2024-01-27T08:00:48;30.00;;;3.90;;
39958;SDS011;25639;53.634;9.880;2024-01-27T08:03:14;32.28;;;3.72;;
39958;SDS011;25639;53.634;9.880;2024-01-27T08:05:39;34.70;;;4.70;;
39958;SDS011;25639;53.634;9.880;2024-01-27T08:08:04;34.45;;;3.97;;
39958;SDS011;25639;53.634;9.880;2024-01-27T08:10:30;35.03;;;4.45;;
39958;SDS011;25639;53.634;9.880;2024-01-27T08:12:55;32.70;;;4.60;;
39958;SDS011;25639;53.634;9.880;2024-01-27T08:15:21;36.60;;;4.38;;
39958;SDS011;25639;53.634;9.880;2024-01-27T08:17:46;34.60;;;4.25;;
39958;SDS011;25639;53.634;9.880;2024-01-27T08:20:11;28.27;;;3.72;;
39958;SDS011;25639;53.634;9.880;2024-01-27T08:22:37;35.28;;;3.78;;
39958;SDS011;25639;53.634;9.880;2024-01-27T08:25:02;37.80;;;4.28;;
39958;SDS011;25639;53.634;9.880;2024-01-27T08:27:28;40.95;;;4.70;;
39958;SDS011;25639;53.634;9.880;2024-01-27T08:29:53;33.47;;;3.40;;
39958;SDS011;25639;53.634;9.880;2024-01-27T08:32:19;29.90;;;3.83;;
39958;SDS011;25639;53.634;9.880;2024-01-27T08:34:44;23.70;;;4.45;;
39958;SDS011;25639;53.634;9.880;2024-01-27T08:37:19;31.42;;;4.07;;
39958;SDS011;25639;53.634;9.880;2024-01-27T08:39:45;30.75;;;4.00;;
39958;SDS011;25639;53.634;9.880;2024-01-27T08:42:10;40.03;;;4.72;;
39958;SDS011;25639;53.634;9.880;2024-01-27T08:44:36;33.28;;;3.53;;
39958;SDS011;25639;53.634;9.880;2024-01-27T08:47:02;34.72;;;4.32;;
39958;SDS011;25639;53.634;9.880;2024-01-27T08:49:27;27.95;;;4.40;;
39958;SDS011;25639;53.634;9.880;2024-01-27T08:51:53;35.47;;;4.13;;
39958;SDS011;25639;53.634;9.880;2024-01-27T08:54:20;37.47;;;4.53;;
39958;SDS011;25639;53.634;9.880;2024-01-27T08:56:45;36.20;;;4.75;;
39958;SDS011;25639;53.634;9.880;2024-01-27T08:59:10;37.72;;;5.40;;
39958;SDS011;25639;53.634;9.880;2024-01-27T09:01:35;28.58;;;3.60;;
39958;SDS011;25639;53.634;9.880;2024-01-27T09:04:01;32.40;;;4.97;;
39958;SDS011;25639;53.634;9.880;2024-01-27T09:06:26;33.10;;;5.15;;
39958;SDS011;25639;53.634;9.880;2024-01-27T09:08:51;26.77;;;3.95;;
39958;SDS011;25639;53.634;9.880;2024-01-27T09:11:16;37.03;;;4.80;;
39958;SDS011;25639;53.634;9.880;2024-01-27T09:13:42;34.13;;;4.57;;
39958;SDS011;25639;53.634;9.880;2024-01-27T09:16:09;33.42;;;4.43;;
39958;SDS011;25639;53.634;9.880;2024-01-27T09:18:37;24.50;;;3.78;;
39958;SDS011;25639;53.634;9.880;2024-01-27T09:21:02;31.60;;;4.13;;
39958;SDS011;25639;53.634;9.880;2024-01-27T09:23:28;24.73;;;3.92;;
39958;SDS011;25639;53.634;9.880;2024-01-27T09:25:53;31.60;;;3.33;;
39958;SDS011;25639;53.634;9.880;2024-01-27T09:28:18;22.45;;;3.50;;
39958;SDS011;25639;53.634;9.880;2024-01-27T09:30:44;28.00;;;3.78;;
39958;SDS011;25639;53.634;9.880;2024-01-27T09:33:09;33.30;;;4.00;;
39958;SDS011;25639;53.634;9.880;2024-01-27T09:35:35;39.13;;;4.05;;
39958;SDS011;25639;53.634;9.880;2024-01-27T09:38:00;26.83;;;4.07;;
39958;SDS011;25639;53.634;9.880;2024-01-27T09:40:25;31.38;;;4.22;;
39958;SDS011;25639;53.634;9.880;2024-01-27T09:42:51;26.05;;;3.58;;
39958;SDS011;25639;53.634;9.880;2024-01-27T09:45:18;26.25;;;3.90;;
39958;SDS011;25639;53.634;9.880;2024-01-27T09:47:44;20.25;;;3.00;;
39958;SDS011;25639;53.634;9.880;2024-01-27T09:50:11;23.15;;;3.78;;
39958;SDS011;25639;53.634;9.880;2024-01-27T09:52:36;28.13;;;4.15;;
39958;SDS011;25639;53.634;9.880;2024-01-27T09:55:02;31.90;;;4.22;;
39958;SDS011;25639;53.634;9.880;2024-01-27T09:57:27;27.10;;;4.07;;
39958;SDS011;25639;53.634;9.880;2024-01-27T09:59:53;25.65;;;4.35;;
39958;SDS011;25639;53.634;9.880;2024-01-27T10:02:21;38.80;;;4.43;;
39958;SDS011;25639;53.634;9.880;2024-01-27T10:04:49;19.40;;;3.70;;
39958;SDS011;25639;53.634;9.880;2024-01-27T10:07:15;32.25;;;3.95;;
39958;SDS011;25639;53.634;9.880;2024-01-27T10:09:40;22.48;;;4.25;;
39958;SDS011;25639;53.634;9.880;2024-01-27T10:12:08;29.80;;;4.50;;
39958;SDS011;25639;53.634;9.880;2024-01-27T10:14:38;28.77;;;3.78;;
39958;SDS011;25639;53.634;9.880;2024-01-27T10:17:19;29.42;;;3.90;;
39958;SDS011;25639;53.634;9.880;2024-01-27T10:19:46;26.05;;;4.55;;
39958;SDS011;25639;53.634;9.880;2024-01-27T10:22:11;30.42;;;3.80;;
39958;SDS011;25639;53.634;9.880;2024-01-27T10:24:37;25.00;;;4.57;;
39958;SDS011;25639;53.634;9.880;2024-01-27T10:27:02;26.15;;;4.43;;
39958;SDS011;25639;53.634;9.880;2024-01-27T10:29:28;28.45;;;5.07;;
39958;SDS011;25639;53.634;9.880;2024-01-27T10:31:54;30.30;;;4.15;;
39958;SDS011;25639;53.634;9.880;2024-01-27T10:34:19;31.35;;;4.00;;
39958;SDS011;25639;53.634;9.880;2024-01-27T10:36:45;27.38;;;5.28;;
39958;SDS011;25639;53.634;9.880;2024-01-27T10:39:17;35.65;;;3.95;;
39958;SDS011;25639;53.634;9.880;2024-01-27T10:41:45;27.98;;;3.72;;
39958;SDS011;25639;53.634;9.880;2024-01-27T10:44:16;26.38;;;3.97;;
39958;SDS011;25639;53.634;9.880;2024-01-27T10:46:48;29.30;;;4.20;;
39958;SDS011;25639;53.634;9.880;2024-01-27T10:49:15;25.08;;;4.60;;
39958;SDS011;25639;53.634;9.880;2024-01-27T10:51:55;27.15;;;3.95;;
39958;SDS011;25639;53.634;9.880;2024-01-27T10:54:24;26.30;;;4.88;;
39958;SDS011;25639;53.634;9.880;2024-01-27T10:56:53;38.45;;;4.75;;
39958;SDS011;25639;53.634;9.880;2024-01-27T10:59:19;25.02;;;4.55;;
39958;SDS011;25639;53.634;9.880;2024-01-27T11:01:46;27.77;;;4.15;;
39958;SDS011;25639;53.634;9.880;2024-01-27T11:04:15;31.33;;;4.03;;
39958;SDS011;25639;53.634;9.880;2024-01-27T11:06:41;26.10;;;3.83;;
39958;SDS011;25639;53.634;9.880;2024-01-27T11:09:08;22.77;;;3.65;;
39958;SDS011;25639;53.634;9.880;2024-01-27T11:11:34;24.42;;;3.50;;
39958;SDS011;25639;53.634;9.880;2024-01-27T11:14:00;31.60;;;3.70;;
39958;SDS011;25639;53.634;9.880;2024-01-27T11:16:26;19.88;;;3.95;;
39958;SDS011;25639;53.634;9.880;2024-01-27T11:18:53;25.60;;;3.85;;
39958;SDS011;25639;53.634;9.880;2024-01-27T11:21:18;28.08;;;3.88;;
39958;SDS011;25639;53.634;9.880;2024-01-27T11:23:45;25.35;;;3.78;;
39958;SDS011;25639;53.634;9.880;2024-01-27T11:26:16;20.42;;;3.80;;
39958;SDS011;25639;53.634;9.880;2024-01-27T11:28:43;24.75;;;3.65;;
39958;SDS011;25639;53.634;9.880;2024-01-27T11:31:08;23.65;;;3.50;;
39958;SDS011;25639;53.634;9.880;2024-01-27T11:33:40;24.80;;;3.88;;
39958;SDS011;25639;53.634;9.880;2024-01-27T11:36:18;26.75;;;4.97;;
39958;SDS011;25639;53.634;9.880;2024-01-27T11:38:46;34.67;;;4.30;;
39958;SDS011;25639;53.634;9.880;2024-01-27T11:41:11;22.77;;;4.00;;
39958;SDS011;25639;53.634;9.880;2024-01-27T11:43:37;26.88;;;3.97;;
39958;SDS011;25639;53.634;9.880;2024-01-27T11:46:02;28.77;;;3.97;;
39958;SDS011;25639;53.634;9.880;2024-01-27T11:48:27;18.70;;;3.83;;
39958;SDS011;25639;53.634;9.880;2024-01-27T11:51:02;25.05;;;3.60;;
39958;SDS011;25639;53.634;9.880;2024-01-27T11:53:33;20.80;;;3.17;;
39958;SDS011;25639;53.634;9.880;2024-01-27T11:55:58;21.38;;;3.88;;
39958;SDS011;25639;53.634;9.880;2024-01-27T11:58:25;21.95;;;3.63;;
39958;SDS011;25639;53.634;9.880;2024-01-27T12:00:50;23.60;;;4.07;;
39958;SDS011;25639;53.634;9.880;2024-01-27T12:03:16;26.02;;;3.33;;
39958;SDS011;25639;53.634;9.880;2024-01-27T12:05:42;24.40;;;3.55;;
39958;SDS011;25639;53.634;9.880;2024-01-27T12:08:08;21.17;;;3.33;;
39958;SDS011;25639;53.634;9.880;2024-01-27T12:10:33;18.67;;;3.65;;
39958;SDS011;25639;53.634;9.880;2024-01-27T12:12:59;25.63;;;4.20;;
39958;SDS011;25639;53.634;9.880;2024-01-27T12:15:25;26.25;;;4.80;;
39958;SDS011;25639;53.634;9.880;2024-01-27T12:17:51;30.80;;;4.28;;
39958;SDS011;25639;53.634;9.880;2024-01-27T12:20:17;31.52;;;4.55;;
39958;SDS011;25639;53.634;9.880;2024-01-27T12:22:42;17.90;;;3.35;;
39958;SDS011;25639;53.634;9.880;2024-01-27T12:25:08;25.75;;;3.65;;
39958;SDS011;25639;53.634;9.880;2024-01-27T12:27:35;19.17;;;3.65;;
39958;SDS011;25639;53.634;9.880;2024-01-27T12:30:01;21.65;;;3.60;;
39958;SDS011;25639;53.634;9.880;2024-01-27T12:32:27;24.33;;;3.45;;
39958;SDS011;25639;53.634;9.880;2024-01-27T12:34:52;20.00;;;3.00;;
39958;SDS011;25639;53.634;9.880;2024-01-27T12:37:17;20.08;;;3.00;;
39958;SDS011;25639;53.634;9.880;2024-01-27T12:39:43;20.23;;;3.38;;
39958;SDS011;25639;53.634;9.880;2024-01-27T12:42:09;20.08;;;3.78;;
39958;SDS011;25639;53.634;9.880;2024-01-27T12:44:35;23.05;;;5.07;;
39958;SDS011;25639;53.634;9.880;2024-01-27T12:47:00;20.83;;;3.42;;
39958;SDS011;25639;53.634;9.880;2024-01-27T12:49:25;24.50;;;4.30;;
39958;SDS011;25639;53.634;9.880;2024-01-27T12:51:51;27.58;;;3.67;;
39958;SDS011;25639;53.634;9.880;2024-01-27T12:54:17;22.80;;;3.50;;
39958;SDS011;25639;53.634;9.880;2024-01-27T12:56:42;26.02;;;3.88;;
39958;SDS011;25639;53.634;9.880;2024-01-27T12:59:07;20.83;;;3.15;;
39958;SDS011;25639;53.634;9.880;2024-01-27T13:01:33;21.80;;;2.90;;
39958;SDS011;25639;53.634;9.880;2024-01-27T13:03:58;18.38;;;3.72;;
39958;SDS011;25639;53.634;9.880;2024-01-27T13:06:24;25.65;;;5.13;;
39958;SDS011;25639;53.634;9.880;2024-01-27T13:08:49;26.75;;;3.92;;
39958;SDS011;25639;53.634;9.880;2024-01-27T13:11:15;18.05;;;3.47;;
39958;SDS011;25639;53.634;9.880;2024-01-27T13:13:41;29.75;;;5.50;;
39958;SDS011;25639;53.634;9.880;2024-01-27T13:16:06;22.60;;;4.03;;
39958;SDS011;25639;53.634;9.880;2024-01-27T13:18:32;37.33;;;4.20;;
39958;SDS011;25639;53.634;9.880;2024-01-27T13:20:57;19.35;;;3.75;;
39958;SDS011;25639;53.634;9.880;2024-01-27T13:23:22;25.80;;;3.78;;
39958;SDS011;25639;53.634;9.880;2024-01-27T13:25:48;20.75;;;3.65;;
39958;SDS011;25639;53.634;9.880;2024-01-27T13:28:13;27.83;;;3.45;;
39958;SDS011;25639;53.634;9.880;2024-01-27T13:30:39;26.13;;;3.85;;
39958;SDS011;25639;53.634;9.880;2024-01-27T13:33:04;25.00;;;4.43;;
39958;SDS011;25639;53.634;9.880;2024-01-27T13:35:30;25.23;;;4.00;;
39958;SDS011;25639;53.634;9.880;2024-01-27T13:37:55;22.65;;;3.72;;
39958;SDS011;25639;53.634;9.880;2024-01-27T13:40:20;22.15;;;3.35;;
39958;SDS011;25639;53.634;9.880;2024-01-27T13:42:46;25.98;;;3.95;;
39958;SDS011;25639;53.634;9.880;2024-01-27T13:45:11;28.80;;;4.15;;
39958;SDS011;25639;53.634;9.880;2024-01-27T13:47:37;21.73;;;3.85;;
39958;SDS011;25639;53.634;9.880;2024-01-27T13:50:02;22.92;;;3.78;;
39958;SDS011;25639;53.634;9.880;2024-01-27T13:52:28;34.95;;;3.90;;
39958;SDS011;25639;53.634;9.880;2024-01-27T13:54:54;23.83;;;3.75;;
39958;SDS011;25639;53.634;9.880;2024-01-27T13:57:19;19.50;;;3.35;;
39958;SDS011;25639;53.634;9.880;2024-01-27T13:59:45;29.30;;;4.40;;
39958;SDS011;25639;53.634;9.880;2024-01-27T14:02:10;24.45;;;3.45;;
39958;SDS011;25639;53.634;9.880;2024-01-27T14:04:36;22.98;;;3.25;;
39958;SDS011;25639;53.634;9.880;2024-01-27T14:07:01;19.35;;;3.10;;
39958;SDS011;25639;53.634;9.880;2024-01-27T14:09:31;24.00;;;3.28;;
39958;SDS011;25639;53.634;9.880;2024-01-27T14:11:57;17.80;;;2.95;;
39958;SDS011;25639;53.634;9.880;2024-01-27T14:14:23;16.42;;;3.20;;
39958;SDS011;25639;53.634;9.880;2024-01-27T14:16:48;17.38;;;2.63;;
39958;SDS011;25639;53.634;9.880;2024-01-27T14:19:13;29.63;;;3.67;;
39958;SDS011;25639;53.634;9.880;2024-01-27T14:21:38;26.15;;;3.40;;
39958;SDS011;25639;53.634;9.880;2024-01-27T14:24:05;19.42;;;3.63;;
39958;SDS011;25639;53.634;9.880;2024-01-27T14:26:31;18.30;;;3.50;;